createdAt,value
2022-12-24T00:00:00.542Z,82.7
2022-12-24T00:01:00.717Z,82.7
2022-12-24T00:02:00.927Z,82.7
2022-12-24T00:03:01.128Z,82.6
2022-12-24T00:04:01.147Z,82.5
2022-12-24T00:05:01.051Z,82.4
2022-12-24T00:06:00.451Z,82.3
2022-12-24T00:07:00.611Z,82.5
2022-12-24T00:08:00.766Z,82.4
2022-12-24T00:09:00.901Z,82.3
2022-12-24T00:10:01.069Z,82.3
2022-12-24T00:11:01.202Z,82.3
2022-12-24T00:12:00.360Z,82.2
2022-12-24T00:13:00.502Z,82.2
2022-12-24T00:14:00.651Z,82.2
2022-12-24T00:15:00.848Z,82
2022-12-24T00:16:00.951Z,81.8
2022-12-24T00:17:01.173Z,81.7
2022-12-24T00:19:00.383Z,81.9
2022-12-24T00:20:00.527Z,81.9
2022-12-24T00:21:00.685Z,81.7
2022-12-24T00:22:00.818Z,81.8
2022-12-24T00:23:00.964Z,81.8
2022-12-24T00:24:01.157Z,81.9
2022-12-24T00:25:00.285Z,82
2022-12-24T00:26:00.514Z,81.9
2022-12-24T00:27:00.578Z,82
2022-12-24T00:28:00.709Z,81.9
2022-12-24T00:29:00.867Z,81.9
2022-12-24T00:30:01.021Z,82.1
2022-12-24T00:31:01.215Z,82.1
2022-12-24T00:32:00.328Z,81.9
2022-12-24T00:33:00.527Z,82.1
2022-12-24T00:34:00.608Z,82.1
2022-12-24T00:35:00.778Z,82.3
2022-12-24T00:36:00.917Z,82.1
2022-12-24T00:37:01.060Z,81.9
2022-12-24T00:38:01.229Z,82.1
2022-12-24T00:39:00.351Z,82
2022-12-24T00:40:00.534Z,81.9
2022-12-24T00:41:00.662Z,82.1
2022-12-24T00:42:00.819Z,82.1
2022-12-24T00:43:01.007Z,82.1
2022-12-24T00:44:01.108Z,82.1
2022-12-24T00:45:01.272Z,82
2022-12-24T00:46:00.525Z,81.9
2022-12-24T00:47:00.586Z,81.8
2022-12-24T00:48:00.730Z,81.9
2022-12-24T00:49:00.915Z,81.8
2022-12-24T00:50:00.999Z,81.9
2022-12-24T00:51:01.203Z,81.7
2022-12-24T00:52:00.321Z,81.8
2022-12-24T00:53:00.491Z,81.9
2022-12-24T00:54:00.669Z,81.5
2022-12-24T00:55:00.792Z,81.6
2022-12-24T00:56:00.921Z,81.3
2022-12-24T00:57:01.061Z,81.3
2022-12-24T00:58:01.219Z,81.4
2022-12-24T00:59:00.382Z,81.5
2022-12-24T01:00:00.514Z,81.3
2022-12-24T01:01:00.845Z,81.3
2022-12-24T01:02:00.912Z,81.3
2022-12-24T01:03:01.184Z,81.5
2022-12-24T01:04:01.102Z,81.3
2022-12-24T01:05:01.263Z,81.5
2022-12-24T01:06:00.396Z,81.5
2022-12-24T01:07:00.550Z,81.4
2022-12-24T01:08:00.741Z,81.4
2022-12-24T01:09:00.844Z,81.4
2022-12-24T01:10:01.009Z,81.4
2022-12-24T01:11:01.171Z,81.5
2022-12-24T01:12:00.309Z,81.4
2022-12-24T01:13:00.495Z,81.6
2022-12-24T01:14:00.612Z,81.5
2022-12-24T01:15:00.828Z,81.4
2022-12-24T01:16:01.023Z,81.4
2022-12-24T01:17:01.070Z,81.4
2022-12-24T01:18:01.215Z,81.5
2022-12-24T01:19:00.384Z,81.5
2022-12-24T01:20:00.513Z,81.3
2022-12-24T01:21:00.660Z,81.2
2022-12-24T01:22:00.828Z,81.2
2022-12-24T01:23:00.944Z,81.3
2022-12-24T01:24:01.097Z,81.2
2022-12-24T01:25:01.271Z,81.2
2022-12-24T01:26:00.394Z,81.4
2022-12-24T01:27:00.553Z,81.4
2022-12-24T01:28:00.700Z,81.3
2022-12-24T01:29:00.891Z,81.3
2022-12-24T01:30:01.003Z,81.4
2022-12-24T01:31:01.165Z,81.3
2022-12-24T01:32:00.275Z,81.3
2022-12-24T01:33:00.436Z,81.1
2022-12-24T01:34:00.581Z,81.3
2022-12-24T01:35:00.744Z,81.4
2022-12-24T01:36:00.887Z,81.2
2022-12-24T01:37:01.039Z,81.1
2022-12-24T01:38:01.191Z,81.2
2022-12-24T01:39:00.331Z,81
2022-12-24T01:40:00.512Z,81.2
2022-12-24T01:41:00.640Z,81
2022-12-24T01:42:00.795Z,81
2022-12-24T01:43:00.943Z,80.9
2022-12-24T01:44:01.092Z,81.1
2022-12-24T01:45:01.256Z,81.2
2022-12-24T01:46:00.437Z,81.3
2022-12-24T01:47:00.538Z,81.5
2022-12-24T01:48:00.692Z,81.4
2022-12-24T01:49:00.840Z,81.4
2022-12-24T01:50:01.053Z,81.6
2022-12-24T01:51:01.150Z,81.6
2022-12-24T01:52:00.270Z,81.7
2022-12-24T01:53:00.456Z,81.7
2022-12-24T01:54:00.573Z,81.6
2022-12-24T01:55:00.734Z,81.8
2022-12-24T01:56:00.885Z,81.8
2022-12-24T01:57:01.080Z,81.8
2022-12-24T01:58:01.166Z,81.8
2022-12-24T01:59:00.336Z,81.9
2022-12-24T02:00:00.465Z,81.9
2022-12-24T02:01:00.607Z,82
2022-12-24T02:02:00.897Z,82.1
2022-12-24T02:03:01.104Z,82.1
2022-12-24T02:04:01.078Z,82.2
2022-12-24T02:05:01.236Z,82.2
2022-12-24T02:06:00.385Z,82.3
2022-12-24T02:07:00.555Z,82.2
2022-12-24T02:08:00.692Z,82.3
2022-12-24T02:09:00.846Z,82.4
2022-12-24T02:10:00.989Z,82.4
2022-12-24T02:11:01.139Z,82.4
2022-12-24T02:12:00.285Z,82.5
2022-12-24T02:13:00.449Z,82.4
2022-12-24T02:14:00.601Z,82.2
2022-12-24T02:15:00.744Z,82.2
2022-12-24T02:16:00.948Z,82.2
2022-12-24T02:17:01.112Z,82.2
2022-12-24T02:18:01.196Z,82.2
2022-12-24T02:19:00.331Z,82.2
2022-12-24T02:20:00.483Z,82.2
2022-12-24T02:21:00.623Z,82.2
2022-12-24T02:22:00.792Z,82.2
2022-12-24T02:23:00.913Z,82.3
2022-12-24T02:24:01.136Z,82.3
2022-12-24T02:25:01.241Z,82.3
2022-12-24T02:26:00.371Z,82.3
2022-12-24T02:27:00.524Z,82.2
2022-12-24T02:28:00.677Z,82.2
2022-12-24T02:29:00.854Z,82.2
2022-12-24T02:30:00.980Z,82.2
2022-12-24T02:31:01.197Z,82.2
2022-12-24T02:32:00.281Z,82.2
2022-12-24T02:33:00.425Z,82.2
2022-12-24T02:34:00.577Z,82.2
2022-12-24T02:35:00.712Z,82.2
2022-12-24T02:36:00.874Z,82.2
2022-12-24T02:37:01.023Z,82.2
2022-12-24T02:38:01.190Z,81.9
2022-12-24T02:39:00.323Z,81.9
2022-12-24T02:40:00.485Z,82
2022-12-24T02:41:00.642Z,82
2022-12-24T02:42:00.897Z,81.9
2022-12-24T02:43:00.940Z,82.1
2022-12-24T02:44:01.083Z,82.1
2022-12-24T02:45:01.243Z,81.9
2022-12-24T02:46:00.375Z,81.9
2022-12-24T02:47:00.687Z,81.9
2022-12-24T02:48:00.690Z,81.9
2022-12-24T02:49:00.837Z,81.9
2022-12-24T02:50:00.963Z,81.9
2022-12-24T02:51:01.105Z,81.9
2022-12-24T02:52:01.286Z,81.9
2022-12-24T02:53:00.397Z,81.6
2022-12-24T02:54:00.585Z,81.6
2022-12-24T02:55:00.734Z,81.7
2022-12-24T02:56:00.878Z,81.4
2022-12-24T02:57:01.004Z,81.4
2022-12-24T02:58:01.163Z,81.5
2022-12-24T02:59:00.324Z,81.4
2022-12-24T03:00:00.482Z,81.4
2022-12-24T03:01:00.653Z,81.2
2022-12-24T03:02:00.877Z,81.2
2022-12-24T03:03:01.037Z,81.4
2022-12-24T03:04:01.068Z,81.4
2022-12-24T03:05:01.222Z,81.4
2022-12-24T03:06:00.368Z,81.6
2022-12-24T03:07:00.517Z,81.6
2022-12-24T03:08:00.641Z,81.5
2022-12-24T03:09:00.806Z,81.6
2022-12-24T03:10:00.992Z,81.7
2022-12-24T03:11:01.110Z,81.6
2022-12-24T03:12:01.243Z,81.8
2022-12-24T03:13:00.423Z,81.8
2022-12-24T03:14:00.544Z,81.9
2022-12-24T03:15:00.697Z,81.8
2022-12-24T03:16:00.913Z,81.8
2022-12-24T03:17:01.044Z,81.9
2022-12-24T03:18:01.139Z,81.9
2022-12-24T03:19:00.287Z,81.8
2022-12-24T03:20:00.451Z,81.9
2022-12-24T03:21:00.643Z,81.8
2022-12-24T03:22:00.726Z,81.8
2022-12-24T03:23:00.874Z,81.8
2022-12-24T03:24:01.024Z,81.8
2022-12-24T03:25:01.178Z,81.9
2022-12-24T03:26:00.350Z,81.7
2022-12-24T03:27:00.476Z,81.9
2022-12-24T03:28:00.613Z,81.8
2022-12-24T03:29:00.773Z,81.8
2022-12-24T03:30:00.917Z,81.9
2022-12-24T03:31:01.088Z,81.9
2022-12-24T03:32:01.338Z,81.8
2022-12-24T03:33:00.367Z,81.8
2022-12-24T03:34:00.507Z,81.8
2022-12-24T03:35:00.663Z,81.7
2022-12-24T03:36:00.824Z,81.6
2022-12-24T03:37:00.959Z,81.6
2022-12-24T03:38:01.107Z,81.7
2022-12-24T03:40:00.375Z,81.7
2022-12-24T03:41:00.528Z,81.7
2022-12-24T03:42:00.685Z,81.7
2022-12-24T03:43:00.833Z,81.8
2022-12-24T03:44:00.973Z,81.8
2022-12-24T03:45:01.130Z,81.9
2022-12-24T03:46:01.297Z,81.8
2022-12-24T03:47:00.427Z,81.8
2022-12-24T03:48:00.584Z,81.8
2022-12-24T03:49:00.696Z,81.8
2022-12-24T03:50:00.846Z,81.7
2022-12-24T03:51:01.004Z,81.8
2022-12-24T03:52:01.175Z,81.8
2022-12-24T03:53:00.293Z,81.8
2022-12-24T03:54:00.446Z,82
2022-12-24T03:55:00.583Z,82
2022-12-24T03:56:00.729Z,81.7
2022-12-24T03:57:00.905Z,81.7
2022-12-24T03:58:01.023Z,81.7
2022-12-24T03:59:01.172Z,81.6
2022-12-24T04:00:00.320Z,81.6
2022-12-24T04:01:00.497Z,81.5
2022-12-24T04:02:00.735Z,81.3
2022-12-24T04:03:00.877Z,81.4
2022-12-24T04:04:00.929Z,81.4
2022-12-24T04:05:01.063Z,81.3
2022-12-24T04:06:01.207Z,81.3
2022-12-24T04:07:00.352Z,81.1
2022-12-24T04:08:00.534Z,81.2
2022-12-24T04:09:00.649Z,81.2
2022-12-24T04:10:00.813Z,81
2022-12-24T04:11:06.163Z,81
2022-12-24T04:12:01.101Z,81
2022-12-24T04:13:01.293Z,81
2022-12-24T04:14:00.399Z,81.2
2022-12-24T04:15:00.544Z,80.8
2022-12-24T04:16:00.740Z,80.8
2022-12-24T04:17:01.053Z,80.6
2022-12-24T04:18:01.032Z,80.8
2022-12-24T04:19:01.151Z,80.5
2022-12-24T04:20:00.313Z,80.4
2022-12-24T04:21:00.491Z,80.5
2022-12-24T04:22:00.629Z,80.4
2022-12-24T04:23:00.802Z,80.4
2022-12-24T04:24:00.968Z,80.4
2022-12-24T04:25:01.098Z,80.5
2022-12-24T04:26:01.227Z,80.4
2022-12-24T04:27:00.365Z,80.3
2022-12-24T04:28:00.523Z,80.1
2022-12-24T04:29:00.713Z,80.1
2022-12-24T04:30:00.851Z,80.3
2022-12-24T04:31:00.975Z,80.1
2022-12-24T04:32:01.207Z,79.9
2022-12-24T04:33:00.265Z,80.1
2022-12-24T04:34:00.423Z,80.1
2022-12-24T04:35:00.590Z,80.1
2022-12-24T04:36:00.741Z,80.1
2022-12-24T04:37:00.848Z,80.1
2022-12-24T04:38:01.014Z,79.9
2022-12-24T04:39:01.167Z,80
2022-12-24T04:40:00.360Z,79.8
2022-12-24T04:41:00.460Z,80
2022-12-24T04:42:00.596Z,80.2
2022-12-24T04:43:00.741Z,80.1
2022-12-24T04:44:00.901Z,80.2
2022-12-24T04:45:01.077Z,80
2022-12-24T04:46:01.233Z,80.1
2022-12-24T04:47:00.340Z,80.1
2022-12-24T04:48:00.490Z,79.9
2022-12-24T04:49:00.645Z,80
2022-12-24T04:50:00.827Z,80
2022-12-24T04:51:00.951Z,79.9
2022-12-24T04:52:01.060Z,80
2022-12-24T04:53:01.222Z,79.7
2022-12-24T04:54:00.361Z,79.6
2022-12-24T04:55:00.538Z,79.8
2022-12-24T04:56:00.685Z,79.6
2022-12-24T04:57:00.803Z,79.4
2022-12-24T04:58:00.965Z,79.5
2022-12-24T04:59:01.123Z,79.2
2022-12-24T05:00:01.267Z,79.6
2022-12-24T05:01:00.469Z,79.6
2022-12-24T05:02:00.807Z,79.6
2022-12-24T05:03:00.749Z,79.6
2022-12-24T05:04:00.849Z,79.8
2022-12-24T05:05:01.008Z,79.7
2022-12-24T05:06:01.656Z,79.7
2022-12-24T05:07:00.321Z,79.4
2022-12-24T05:08:00.445Z,79.5
2022-12-24T05:09:00.608Z,79.9
2022-12-24T05:10:00.744Z,79.8
2022-12-24T05:11:00.903Z,79.5
2022-12-24T05:12:01.068Z,79.7
2022-12-24T05:13:01.181Z,79.7
2022-12-24T05:14:00.406Z,79.9
2022-12-24T05:15:00.487Z,80
2022-12-24T05:16:00.657Z,79.7
2022-12-24T05:17:00.946Z,79.9
2022-12-24T05:18:00.949Z,79.8
2022-12-24T05:19:01.098Z,79.8
2022-12-24T05:20:01.245Z,79.9
2022-12-24T05:21:00.388Z,79.9
2022-12-24T05:22:00.554Z,79.8
2022-12-24T05:23:00.704Z,80
2022-12-24T05:24:00.888Z,79.9
2022-12-24T05:25:01.002Z,79.8
2022-12-24T05:26:01.169Z,79.8
2022-12-24T05:27:00.295Z,79.9
2022-12-24T05:28:00.457Z,79.9
2022-12-24T05:29:00.623Z,79.8
2022-12-24T05:30:00.743Z,79.9
2022-12-24T05:31:00.974Z,80
2022-12-24T05:32:01.061Z,80
2022-12-24T05:33:01.233Z,80.1
2022-12-24T05:34:00.354Z,79.9
2022-12-24T05:35:00.505Z,79.9
2022-12-24T05:36:00.646Z,79.9
2022-12-24T05:37:00.813Z,80
2022-12-24T05:38:00.978Z,80.1
2022-12-24T05:39:01.155Z,80.2
2022-12-24T05:40:00.275Z,80.1
2022-12-24T05:41:00.420Z,80
2022-12-24T05:42:00.571Z,80.1
2022-12-24T05:43:00.721Z,80.1
2022-12-24T05:44:00.901Z,80.1
2022-12-24T05:45:01.036Z,80.2
2022-12-24T05:46:01.166Z,80.1
2022-12-24T05:47:00.315Z,80.2
2022-12-24T05:48:00.477Z,80.3
2022-12-24T05:49:00.638Z,80.4
2022-12-24T05:50:00.778Z,80.2
2022-12-24T05:51:00.912Z,80.2
2022-12-24T05:52:01.074Z,80.2
2022-12-24T05:53:01.215Z,79.9
2022-12-24T05:54:00.410Z,79.9
2022-12-24T05:55:00.505Z,79.7
2022-12-24T05:56:00.651Z,79.9
2022-12-24T05:57:00.810Z,79.8
2022-12-24T05:58:00.947Z,79.9
2022-12-24T05:59:01.111Z,79.7
2022-12-24T06:00:01.234Z,79.8
2022-12-24T06:01:00.387Z,79.6
2022-12-24T06:02:00.686Z,79.7
2022-12-24T06:03:00.737Z,79.8
2022-12-24T06:04:00.922Z,79.9
2022-12-24T06:05:01.056Z,80
2022-12-24T06:06:01.132Z,79.8
2022-12-24T06:07:01.249Z,79.8
2022-12-24T06:08:00.410Z,79.9
2022-12-24T06:09:00.543Z,79.7
2022-12-24T06:10:00.734Z,79.7
2022-12-24T06:11:00.852Z,79.3
2022-12-24T06:12:01.025Z,79.5
2022-12-24T06:13:01.155Z,79.5
2022-12-24T06:14:00.300Z,79.6
2022-12-24T06:15:00.489Z,79.4
2022-12-24T06:16:00.704Z,79.3
2022-12-24T06:17:00.747Z,79.2
2022-12-24T06:18:00.883Z,79.2
2022-12-24T06:19:01.044Z,79.1
2022-12-24T06:20:01.226Z,79.3
2022-12-24T06:21:00.342Z,79.5
2022-12-24T06:22:00.489Z,79.5
2022-12-24T06:23:00.635Z,79.6
2022-12-24T06:24:00.799Z,79.8
2022-12-24T06:25:00.949Z,80
2022-12-24T06:26:01.148Z,80.4
2022-12-24T06:27:01.214Z,80.4
2022-12-24T06:28:00.380Z,80.4
2022-12-24T06:29:00.511Z,80.4
2022-12-24T06:30:00.693Z,80.8
2022-12-24T06:31:03.329Z,80.8
2022-12-24T06:32:01.020Z,81.3
2022-12-24T06:33:01.132Z,81.5
2022-12-24T06:34:00.301Z,81.6
2022-12-24T06:35:00.465Z,81.5
2022-12-24T06:36:00.630Z,81.8
2022-12-24T06:37:00.747Z,82
2022-12-24T06:38:00.881Z,82.4
2022-12-24T06:39:01.032Z,82.7
2022-12-24T06:40:01.214Z,83
2022-12-24T06:41:00.341Z,82.9
2022-12-24T06:42:00.472Z,83.1
2022-12-24T06:43:00.612Z,83.2
2022-12-24T06:44:00.772Z,83.4
2022-12-24T06:45:03.891Z,83.5
2022-12-24T06:46:01.129Z,83.6
2022-12-24T06:47:01.306Z,83.7
2022-12-24T06:48:00.326Z,83.8
2022-12-24T06:49:00.499Z,83.9
2022-12-24T06:50:00.649Z,83.9
2022-12-24T06:51:00.781Z,84
2022-12-24T06:52:00.946Z,84.1
2022-12-24T06:53:01.100Z,84.2
2022-12-24T06:54:01.267Z,84.3
2022-12-24T06:55:00.596Z,84.4
2022-12-24T06:56:00.601Z,84.7
2022-12-24T06:57:00.707Z,84.6
2022-12-24T06:58:00.868Z,84.8
2022-12-24T06:59:05.243Z,84.9
2022-12-24T07:00:01.178Z,84.8
2022-12-24T07:01:00.355Z,85
2022-12-24T07:02:00.616Z,85
2022-12-24T07:03:00.646Z,85.1
2022-12-24T07:04:00.936Z,85.1
2022-12-24T07:05:00.926Z,85.2
2022-12-24T07:06:01.133Z,85.3
2022-12-24T07:07:01.245Z,85.4
2022-12-24T07:08:00.402Z,85.6
2022-12-24T07:09:00.531Z,85.7
2022-12-24T07:10:00.692Z,85.8
2022-12-24T07:11:00.854Z,85.8
2022-12-24T07:12:01.008Z,85.8
2022-12-24T07:13:01.122Z,85.9
2022-12-24T07:14:00.329Z,85.9
2022-12-24T07:15:00.440Z,85.9
2022-12-24T07:16:00.735Z,85.9
2022-12-24T07:17:00.869Z,85.9
2022-12-24T07:18:00.877Z,85.9
2022-12-24T07:19:01.022Z,85.8
2022-12-24T07:20:01.169Z,85.8
2022-12-24T07:21:00.322Z,85.8
2022-12-24T07:22:00.516Z,85.8
2022-12-24T07:23:00.637Z,85.7
2022-12-24T07:24:00.774Z,85.7
2022-12-24T07:25:00.970Z,85.8
2022-12-24T07:26:01.072Z,85.9
2022-12-24T07:27:01.236Z,85.9
2022-12-24T07:28:00.372Z,85.9
2022-12-24T07:29:00.511Z,85.9
2022-12-24T07:30:00.779Z,85.9
2022-12-24T07:31:01.023Z,85.9
2022-12-24T07:32:00.989Z,85.8
2022-12-24T07:33:01.092Z,85.7
2022-12-24T07:34:01.250Z,85.5
2022-12-24T07:35:00.405Z,85.3
2022-12-24T07:36:00.546Z,85.1
2022-12-24T07:37:00.719Z,84.9
2022-12-24T07:38:00.852Z,84.7
2022-12-24T07:39:01.006Z,84.5
2022-12-24T07:40:01.146Z,84.4
2022-12-24T07:41:00.302Z,84.3
2022-12-24T07:42:00.459Z,84.2
2022-12-24T07:43:00.598Z,84.1
2022-12-24T07:44:00.758Z,84.1
2022-12-24T07:45:00.937Z,84.1
2022-12-24T07:46:01.079Z,84.1
2022-12-24T07:47:01.308Z,84.2
2022-12-24T07:48:00.347Z,84.2
2022-12-24T07:49:00.507Z,84.3
2022-12-24T07:50:00.652Z,84.3
2022-12-24T07:51:00.802Z,84.2
2022-12-24T07:52:00.942Z,84.1
2022-12-24T07:53:01.092Z,84.1
2022-12-24T07:54:01.226Z,84.1
2022-12-24T07:55:00.380Z,84.1
2022-12-24T07:56:00.529Z,83.9
2022-12-24T07:57:00.685Z,83.8
2022-12-24T07:58:00.806Z,83.7
2022-12-24T07:59:00.984Z,83.7
2022-12-24T08:00:01.133Z,83.7
2022-12-24T08:01:01.272Z,83.6
2022-12-24T08:02:00.544Z,83.6
2022-12-24T08:03:00.742Z,83.6
2022-12-24T08:04:00.779Z,83.6
2022-12-24T08:05:00.954Z,83.5
2022-12-24T08:06:00.996Z,83.4
2022-12-24T08:07:01.128Z,83.4
2022-12-24T08:08:00.283Z,83.3
2022-12-24T08:09:00.435Z,83.3
2022-12-24T08:10:00.626Z,83.3
2022-12-24T08:11:00.757Z,83.3
2022-12-24T08:12:00.893Z,83.4
2022-12-24T08:13:01.037Z,83.4
2022-12-24T08:14:01.200Z,83.3
2022-12-24T08:15:00.353Z,83.2
2022-12-24T08:16:00.636Z,83.2
2022-12-24T08:17:00.618Z,83.3
2022-12-24T08:18:00.782Z,83.2
2022-12-24T08:19:00.939Z,83.3
2022-12-24T08:20:01.089Z,83.1
2022-12-24T08:21:01.269Z,82.8
2022-12-24T08:22:00.379Z,82.9
2022-12-24T08:23:00.538Z,82.8
2022-12-24T08:24:00.682Z,83
2022-12-24T08:25:00.857Z,82.8
2022-12-24T08:26:01.015Z,82.9
2022-12-24T08:27:01.128Z,82.8
2022-12-24T08:28:00.276Z,82.7
2022-12-24T08:29:00.439Z,82.6
2022-12-24T08:30:00.591Z,82.5
2022-12-24T08:31:00.758Z,82.7
2022-12-24T08:32:01.023Z,82.7
2022-12-24T08:33:01.020Z,83
2022-12-24T08:34:01.176Z,82.9
2022-12-24T08:35:00.340Z,82.9
2022-12-24T08:36:00.514Z,83.1
2022-12-24T08:37:00.624Z,82.6
2022-12-24T08:38:00.790Z,82.4
2022-12-24T08:39:00.951Z,82.3
2022-12-24T08:40:01.208Z,82.2
2022-12-24T08:41:01.273Z,82.2
2022-12-24T08:42:00.476Z,82.2
2022-12-24T08:43:00.617Z,81.9
2022-12-24T08:44:00.678Z,82
2022-12-24T08:45:00.950Z,81.8
2022-12-24T08:46:01.047Z,81.9
2022-12-24T08:47:01.114Z,82
2022-12-24T08:48:00.271Z,81.9
2022-12-24T08:49:00.408Z,81.8
2022-12-24T08:50:00.557Z,81.4
2022-12-24T08:51:00.720Z,81.5
2022-12-24T08:52:00.878Z,82
2022-12-24T08:53:01.005Z,81.8
2022-12-24T08:54:01.147Z,81.8
2022-12-24T08:55:00.307Z,82.3
2022-12-24T08:56:00.471Z,82.5
2022-12-24T08:57:00.616Z,82.5
2022-12-24T08:58:00.787Z,82.4
2022-12-24T08:59:00.895Z,82.4
2022-12-24T09:00:01.049Z,81.9
2022-12-24T09:01:01.260Z,82.3
2022-12-24T09:02:00.568Z,82.2
2022-12-24T09:03:00.645Z,82.6
2022-12-24T09:04:00.648Z,82.1
2022-12-24T09:05:00.806Z,82
2022-12-24T09:06:00.987Z,81.6
2022-12-24T09:07:01.101Z,81.6
2022-12-24T09:08:01.263Z,81.8
2022-12-24T09:09:00.431Z,81.8
2022-12-24T09:10:00.548Z,81.9
2022-12-24T09:11:00.704Z,81.6
2022-12-24T09:12:00.853Z,82
2022-12-24T09:13:00.994Z,81.8
2022-12-24T09:14:01.135Z,81.7
2022-12-24T09:15:03.687Z,81.9
2022-12-24T09:16:00.457Z,82.1
2022-12-24T09:17:00.718Z,82.4
2022-12-24T09:18:00.738Z,81.9
2022-12-24T09:19:00.879Z,82
2022-12-24T09:20:01.022Z,81.9
2022-12-24T09:21:01.274Z,81.9
2022-12-24T09:22:00.364Z,81.8
2022-12-24T09:23:00.477Z,81.9
2022-12-24T09:24:00.610Z,81.9
2022-12-24T09:25:00.780Z,82.2
2022-12-24T09:26:00.951Z,82.4
2022-12-24T09:27:01.057Z,82.6
2022-12-24T09:28:01.207Z,82.8
2022-12-24T09:29:00.369Z,82.8
2022-12-24T09:30:00.546Z,83
2022-12-24T09:31:00.670Z,83.3
2022-12-24T09:32:00.909Z,83.4
2022-12-24T09:33:00.961Z,83.5
2022-12-24T09:34:01.128Z,83.7
2022-12-24T09:35:00.285Z,83.8
2022-12-24T09:36:00.423Z,83.9
2022-12-24T09:37:00.611Z,84
2022-12-24T09:38:00.734Z,84.1
2022-12-24T09:39:00.856Z,84.3
2022-12-24T09:40:01.026Z,84.4
2022-12-24T09:41:03.840Z,84.4
2022-12-24T09:42:00.357Z,84.4
2022-12-24T09:43:00.464Z,84.4
2022-12-24T09:44:00.638Z,84.5
2022-12-24T09:45:00.764Z,84.3
2022-12-24T09:46:00.971Z,84.3
2022-12-24T09:47:04.144Z,84.3
2022-12-24T09:48:01.220Z,84.3
2022-12-24T09:49:00.376Z,84.6
2022-12-24T09:50:00.512Z,84.6
2022-12-24T09:51:00.648Z,84.6
2022-12-24T09:52:00.839Z,84.7
2022-12-24T09:53:00.951Z,84.6
2022-12-24T09:54:01.116Z,84.7
2022-12-24T09:55:01.282Z,84.6
2022-12-24T09:56:00.411Z,84.6
2022-12-24T09:57:00.598Z,84.9
2022-12-24T09:58:00.712Z,84.6
2022-12-24T09:59:00.889Z,84.5
2022-12-24T10:00:01.052Z,84.5
2022-12-24T10:01:01.169Z,84.6
2022-12-24T10:02:00.453Z,84.6
2022-12-24T10:03:00.547Z,84.7
2022-12-24T10:04:00.627Z,85.1
2022-12-24T10:05:00.786Z,85
2022-12-24T10:06:00.921Z,85.3
2022-12-24T10:07:01.085Z,85.4
2022-12-24T10:08:01.270Z,85.2
2022-12-24T10:09:00.410Z,85
2022-12-24T10:10:00.510Z,85.1
2022-12-24T10:11:00.662Z,85.1
2022-12-24T10:12:00.814Z,85.1
2022-12-24T10:13:00.987Z,84.7
2022-12-24T10:14:01.130Z,84.9
2022-12-24T10:15:00.269Z,84.8
2022-12-24T10:16:00.426Z,84.9
2022-12-24T10:17:00.652Z,85
2022-12-24T10:18:00.738Z,85.1
2022-12-24T10:19:00.899Z,84.9
2022-12-24T10:20:01.021Z,84.8
2022-12-24T10:21:01.166Z,84.8
2022-12-24T10:22:00.329Z,84.6
2022-12-24T10:23:00.471Z,84.7
2022-12-24T10:24:00.641Z,84.9
2022-12-24T10:25:00.759Z,84.8
2022-12-24T10:26:00.913Z,84.8
2022-12-24T10:27:01.070Z,84.6
2022-12-24T10:28:01.204Z,84.3
2022-12-24T10:29:00.370Z,84.4
2022-12-24T10:30:00.515Z,84.2
2022-12-24T10:31:00.723Z,84
2022-12-24T10:32:00.813Z,84.2
2022-12-24T10:33:00.968Z,83.6
2022-12-24T10:34:01.126Z,83.7
2022-12-24T10:35:01.249Z,83.5
2022-12-24T10:36:00.409Z,83.2
2022-12-24T10:37:00.547Z,82.9
2022-12-24T10:38:00.702Z,82.8
2022-12-24T10:39:00.875Z,83.1
2022-12-24T10:40:01.042Z,83.2
2022-12-24T10:41:01.164Z,82.7
2022-12-24T10:42:00.303Z,82.7
2022-12-24T10:43:00.473Z,82.7
2022-12-24T10:44:00.623Z,83.1
2022-12-24T10:45:00.760Z,83.1
2022-12-24T10:46:00.979Z,83.3
2022-12-24T10:47:01.064Z,83.1
2022-12-24T10:48:01.202Z,82.9
2022-12-24T10:49:00.378Z,83.1
2022-12-24T10:50:00.486Z,82.9
2022-12-24T10:51:00.648Z,82.8
2022-12-24T10:52:00.801Z,82.6
2022-12-24T10:53:00.957Z,82.3
2022-12-24T10:54:01.148Z,82.4
2022-12-24T10:55:01.271Z,82.4
2022-12-24T10:56:00.415Z,82.9
2022-12-24T10:57:00.529Z,82.4
2022-12-24T10:58:00.679Z,82.3
2022-12-24T10:59:00.832Z,82.1
2022-12-24T11:00:00.990Z,82.2
2022-12-24T11:01:01.174Z,81.8
2022-12-24T11:02:00.379Z,81.6
2022-12-24T11:03:00.670Z,81.6
2022-12-24T11:04:00.593Z,81.5
2022-12-24T11:05:00.793Z,81.4
2022-12-24T11:06:00.857Z,81.3
2022-12-24T11:07:01.076Z,81.5
2022-12-24T11:08:01.165Z,81.4
2022-12-24T11:09:00.303Z,81.4
2022-12-24T11:10:00.507Z,81.4
2022-12-24T11:11:00.621Z,81.3
2022-12-24T11:12:06.937Z,81.5
2022-12-24T11:13:35.583Z,81.3
2022-12-24T11:14:01.090Z,81.3
2022-12-24T11:15:01.209Z,81.2
2022-12-24T11:16:00.376Z,81.3
2022-12-24T11:17:00.483Z,81.3
2022-12-24T11:18:00.624Z,81.1
2022-12-24T11:19:00.798Z,81.3
2022-12-24T11:20:00.924Z,80.8
2022-12-24T11:21:01.072Z,80.9
2022-12-24T11:22:01.220Z,80.8
2022-12-24T11:23:00.374Z,80.9
2022-12-24T11:24:00.541Z,80.5
2022-12-24T11:25:00.680Z,80.7
2022-12-24T11:26:00.820Z,80.4
2022-12-24T11:27:00.968Z,80.7
2022-12-24T11:28:01.113Z,80.7
2022-12-24T11:29:00.283Z,80.3
2022-12-24T11:30:02.196Z,80.3
2022-12-24T11:31:00.619Z,80.2
2022-12-24T11:32:00.709Z,80.3
2022-12-24T11:33:00.866Z,80.4
2022-12-24T11:34:01.030Z,80.2
2022-12-24T11:35:01.167Z,80
2022-12-24T11:36:00.328Z,80.1
2022-12-24T11:37:00.454Z,80
2022-12-24T11:38:00.629Z,79.5
2022-12-24T11:39:00.743Z,79.4
2022-12-24T11:40:00.901Z,79.6
2022-12-24T11:41:01.091Z,79.6
2022-12-24T11:42:01.181Z,79.9
2022-12-24T11:43:00.332Z,80
2022-12-24T11:44:00.489Z,79.9
2022-12-24T11:45:00.627Z,79.4
2022-12-24T11:46:00.854Z,79.5
2022-12-24T11:47:00.927Z,79.5
2022-12-24T11:48:01.077Z,79
2022-12-24T11:49:05.965Z,78.9
2022-12-24T11:50:17.547Z,78.7
2022-12-24T11:51:00.562Z,78.5
2022-12-24T11:52:00.677Z,78.4
2022-12-24T11:53:00.854Z,78.5
2022-12-24T11:54:00.990Z,78.2
2022-12-24T11:55:01.158Z,78.4
2022-12-24T11:56:00.310Z,78.5
2022-12-24T11:57:00.455Z,78.4
2022-12-24T11:58:00.590Z,78.8
2022-12-24T11:59:00.748Z,78.7
2022-12-24T12:00:00.887Z,78.6
2022-12-24T12:01:01.057Z,78.5
2022-12-24T12:02:01.274Z,78.2
2022-12-24T12:03:00.468Z,78.3
2022-12-24T12:04:00.549Z,78.2
2022-12-24T12:05:00.617Z,78
2022-12-24T12:06:00.776Z,78.3
2022-12-24T12:07:00.937Z,77.7
2022-12-24T12:08:01.054Z,78.2
2022-12-24T12:09:01.207Z,78
2022-12-24T12:10:00.369Z,78.5
2022-12-24T12:11:00.499Z,78.3
2022-12-24T12:12:00.668Z,78.3
2022-12-24T12:13:00.827Z,78.7
2022-12-24T12:14:00.975Z,78.6
2022-12-24T12:15:01.148Z,78.6
2022-12-24T12:16:01.301Z,78.9
2022-12-24T12:17:00.426Z,78.5
2022-12-24T12:18:00.580Z,78.3
2022-12-24T12:19:00.703Z,78.2
2022-12-24T12:20:00.842Z,78.5
2022-12-24T12:21:01.015Z,78.7
2022-12-24T12:22:01.160Z,79
2022-12-24T12:23:00.330Z,78.7
2022-12-24T12:24:00.459Z,78.5
2022-12-24T12:25:00.611Z,78.2
2022-12-24T12:26:00.768Z,78.3
2022-12-24T12:27:00.923Z,78.5
2022-12-24T12:28:01.059Z,78.3
2022-12-24T12:29:01.221Z,78.2
2022-12-24T12:30:00.352Z,78.3
2022-12-24T12:31:00.541Z,78.2
2022-12-24T12:32:00.671Z,78.5
2022-12-24T12:33:00.844Z,78.2
2022-12-24T12:34:00.958Z,78.3
2022-12-24T12:35:01.094Z,78.1
2022-12-24T12:36:01.246Z,78.3
2022-12-24T12:37:00.402Z,78.4
2022-12-24T12:38:00.543Z,78.4
2022-12-24T12:39:00.689Z,78.3
2022-12-24T12:40:00.868Z,77.9
2022-12-24T12:41:00.988Z,78.1
2022-12-24T12:42:01.145Z,77.9
2022-12-24T12:43:00.279Z,78.4
2022-12-24T12:44:00.419Z,78.9
2022-12-24T12:45:00.580Z,78.6
2022-12-24T12:46:00.715Z,78.2
2022-12-24T12:47:00.918Z,78.3
2022-12-24T12:48:01.003Z,78.4
2022-12-24T12:49:03.036Z,78.8
2022-12-24T12:50:00.325Z,78.8
2022-12-24T12:51:00.445Z,78.5
2022-12-24T12:52:00.593Z,78.4
2022-12-24T12:53:00.732Z,78.1
2022-12-24T12:54:00.892Z,77.9
2022-12-24T12:55:01.037Z,78.2
2022-12-24T12:56:01.181Z,77.7
2022-12-24T12:57:00.326Z,77.7
2022-12-24T12:58:00.483Z,77.5
2022-12-24T12:59:00.618Z,77.9
2022-12-24T13:00:00.757Z,77.4
2022-12-24T13:01:00.981Z,77.5
2022-12-24T13:02:01.395Z,77.4
2022-12-24T13:03:01.390Z,77.7
2022-12-24T13:04:00.369Z,78.4
2022-12-24T13:05:00.526Z,78.5
2022-12-24T13:06:00.689Z,77.9
2022-12-24T13:07:00.800Z,77.8
2022-12-24T13:08:00.943Z,77.7
2022-12-24T13:09:01.104Z,77.7
2022-12-24T13:10:01.275Z,78.1
2022-12-24T13:11:00.425Z,77.8
2022-12-24T13:12:00.556Z,77.8
2022-12-24T13:13:00.718Z,77.8
2022-12-24T13:14:00.864Z,77.8
2022-12-24T13:15:01.017Z,77.8
2022-12-24T13:16:01.231Z,77.8
2022-12-24T13:17:00.310Z,77.9
2022-12-24T13:18:00.465Z,76.8
2022-12-24T13:19:00.616Z,76.8
2022-12-24T13:20:00.774Z,77.2
2022-12-24T13:21:00.933Z,76.7
2022-12-24T13:22:01.068Z,76.7
2022-12-24T13:23:01.216Z,75.8
2022-12-24T13:24:00.356Z,76.5